createdAt,value
2023-04-23T00:00:54.772Z,16.35
2023-04-23T00:04:02.371Z,16.33
2023-04-23T00:07:09.519Z,16.30
2023-04-23T00:10:18.935Z,16.26
2023-04-23T00:13:26.297Z,16.20
2023-04-23T00:16:33.829Z,16.20
2023-04-23T00:19:43.129Z,16.14
2023-04-23T00:22:50.675Z,16.09
2023-04-23T00:25:58.136Z,16.06
2023-04-23T00:29:07.001Z,16.00
2023-04-23T00:32:15.052Z,15.89
2023-04-23T00:35:22.308Z,15.86
2023-04-23T00:38:30.462Z,15.85
2023-04-23T00:41:38.908Z,15.84
2023-04-23T00:44:46.941Z,15.82
2023-04-23T00:47:54.241Z,15.84
2023-04-23T00:51:03.218Z,15.85
2023-04-23T00:54:10.675Z,15.88
2023-04-23T00:57:18.017Z,15.92
2023-04-23T01:00:26.846Z,15.96
2023-04-23T01:03:34.643Z,15.93
2023-04-23T01:06:41.730Z,15.89
2023-04-23T01:09:51.371Z,15.88
2023-04-23T01:12:58.805Z,15.86
2023-04-23T01:16:06.307Z,15.88
2023-04-23T01:19:13.674Z,15.89
2023-04-23T01:22:22.884Z,15.92
2023-04-23T01:25:30.690Z,15.92
2023-04-23T01:28:38.553Z,15.93
2023-04-23T01:31:47.068Z,15.93
2023-04-23T01:34:54.926Z,15.89
2023-04-23T01:38:02.404Z,15.81
2023-04-23T01:41:11.333Z,15.82
2023-04-23T01:44:18.798Z,15.82
2023-04-23T01:47:26.403Z,15.85
2023-04-23T01:50:35.343Z,15.88
2023-04-23T01:53:43.310Z,15.92
2023-04-23T01:56:50.369Z,15.93
2023-04-23T01:59:58.218Z,15.93
2023-04-23T02:03:06.724Z,15.89
2023-04-23T02:06:14.686Z,15.82
2023-04-23T02:09:22.033Z,15.74
2023-04-23T02:12:30.966Z,15.66
2023-04-23T02:15:38.521Z,15.63
2023-04-23T02:18:46.501Z,15.64
2023-04-23T02:21:55.056Z,15.60
2023-04-23T02:25:02.796Z,15.51
2023-04-23T02:28:09.765Z,15.35
2023-04-23T02:31:19.258Z,15.20
2023-04-23T02:34:26.718Z,15.05
2023-04-23T02:37:33.936Z,14.91
2023-04-23T02:40:41.331Z,14.83
2023-04-23T02:43:50.628Z,14.72
2023-04-23T02:46:58.273Z,14.65
2023-04-23T02:50:05.923Z,14.62
2023-04-23T02:53:14.759Z,14.56
2023-04-23T02:56:22.306Z,14.49
2023-04-23T02:59:30.449Z,14.43
2023-04-23T03:02:38.825Z,14.34
2023-04-23T03:05:46.818Z,14.28
2023-04-23T03:08:54.267Z,14.25
2023-04-23T03:12:03.173Z,14.20
2023-04-23T03:15:10.658Z,14.16
2023-04-23T03:18:18.206Z,14.10
2023-04-23T03:21:26.984Z,14.04
2023-04-23T03:24:34.743Z,13.98
2023-04-23T03:27:41.735Z,13.88
2023-04-23T03:30:49.724Z,13.83
2023-04-23T03:33:58.704Z,13.83
2023-04-23T03:37:06.097Z,13.79
2023-04-23T03:40:13.450Z,13.74
2023-04-23T03:43:22.412Z,13.63
2023-04-23T03:46:29.903Z,13.58
2023-04-23T03:49:37.689Z,13.56
2023-04-23T03:52:46.205Z,13.52
2023-04-23T03:55:53.786Z,13.49
2023-04-23T03:59:01.422Z,13.43
2023-04-23T04:02:10.349Z,13.40
2023-04-23T04:05:18.091Z,13.38
2023-04-23T04:08:25.562Z,13.37
2023-04-23T04:11:32.993Z,13.36
2023-04-23T04:14:42.619Z,13.36
2023-04-23T04:17:50.358Z,13.33
2023-04-23T04:20:57.905Z,13.24
2023-04-23T04:24:07.150Z,13.21
2023-04-23T04:27:14.102Z,13.17
2023-04-23T04:30:22.118Z,13.06
2023-04-23T04:33:30.652Z,12.96
2023-04-23T04:36:38.487Z,12.97
2023-04-23T04:39:45.920Z,12.87
2023-04-23T04:42:54.675Z,12.85
2023-04-23T04:46:02.202Z,12.85
2023-04-23T04:49:10.300Z,12.78
2023-04-23T04:52:17.394Z,12.64
2023-04-23T04:55:27.145Z,12.62
2023-04-23T04:58:34.175Z,12.59
2023-04-23T05:01:42.064Z,12.56
2023-04-23T05:04:51.477Z,12.51
2023-04-23T05:07:59.125Z,12.49
2023-04-23T05:11:06.488Z,12.46
2023-04-23T05:14:15.780Z,12.48
2023-04-23T05:17:23.051Z,12.48
2023-04-23T05:20:30.913Z,12.49
2023-04-23T05:23:39.542Z,12.49
2023-04-23T05:26:47.631Z,12.41
2023-04-23T05:29:55.118Z,12.44
2023-04-23T05:33:02.930Z,12.52
2023-04-23T05:36:11.544Z,12.56
2023-04-23T05:39:19.600Z,12.57
2023-04-23T05:42:26.659Z,12.60
2023-04-23T05:45:36.084Z,12.62
2023-04-23T05:48:43.172Z,12.70
2023-04-23T05:51:51.210Z,12.79
2023-04-23T05:55:00.225Z,12.75
2023-04-23T05:58:07.837Z,12.75
2023-04-23T06:01:15.456Z,12.84
2023-04-23T06:04:25.101Z,12.74
2023-04-23T06:07:32.302Z,12.74
2023-04-23T06:10:40.370Z,12.75
2023-04-23T06:13:48.823Z,12.78
2023-04-23T06:16:56.726Z,12.87
2023-04-23T06:20:04.500Z,12.95
2023-04-23T06:23:12.908Z,12.99
2023-04-23T06:26:21.537Z,13.04
2023-04-23T06:29:29.682Z,13.06
2023-04-23T06:32:36.919Z,13.00
2023-04-23T06:35:46.194Z,13.07
2023-04-23T06:38:53.232Z,12.99
2023-04-23T06:42:01.171Z,12.97
2023-04-23T06:45:10.092Z,13.04
2023-04-23T06:48:19.431Z,13.03
2023-04-23T06:51:27.010Z,12.97
2023-04-23T06:54:36.368Z,13.11
2023-04-23T06:57:43.707Z,13.12
2023-04-23T07:00:51.353Z,13.11
2023-04-23T07:03:58.899Z,13.17
2023-04-23T07:07:08.768Z,13.20
2023-04-23T07:10:18.018Z,13.17
2023-04-23T07:13:25.529Z,13.17
2023-04-23T07:16:34.755Z,13.21
2023-04-23T07:19:41.958Z,13.24
2023-04-23T07:22:49.311Z,13.29
2023-04-23T07:25:58.324Z,13.36
2023-04-23T07:29:05.700Z,13.33
2023-04-23T07:32:14.333Z,13.55
2023-04-23T07:35:22.945Z,13.63
2023-04-23T07:38:30.540Z,13.79
2023-04-23T07:41:38.071Z,13.96
2023-04-23T07:44:46.074Z,14.04
2023-04-23T07:47:54.626Z,13.95
2023-04-23T07:51:02.653Z,13.94
2023-04-23T07:54:10.829Z,13.91
2023-04-23T07:57:19.438Z,14.44
2023-04-23T08:00:27.360Z,14.65
2023-04-23T08:03:35.204Z,14.99
2023-04-23T08:06:43.827Z,15.19
2023-04-23T08:09:51.195Z,14.94
2023-04-23T08:12:58.960Z,14.64
2023-04-23T08:16:07.611Z,14.57
2023-04-23T08:19:15.498Z,14.38
2023-04-23T08:22:23.058Z,14.46
2023-04-23T08:25:32.127Z,14.38
2023-04-23T08:28:39.861Z,14.38
2023-04-23T08:31:47.454Z,14.37
2023-04-23T08:34:55.267Z,14.65
2023-04-23T08:38:04.415Z,14.65
2023-04-23T08:41:12.237Z,14.60
2023-04-23T08:44:20.004Z,14.39
2023-04-23T08:47:28.693Z,14.49
2023-04-23T08:50:36.853Z,14.44
2023-04-23T08:53:44.832Z,14.42
2023-04-23T08:56:53.504Z,14.62
2023-04-23T09:00:01.597Z,14.69
2023-04-23T09:03:09.477Z,15.02
2023-04-23T09:06:18.559Z,15.15
2023-04-23T09:09:26.603Z,15.59
2023-04-23T09:12:34.533Z,15.96
2023-04-23T09:15:41.894Z,16.30
2023-04-23T09:18:50.958Z,16.16
2023-04-23T09:21:58.426Z,16.00
2023-04-23T09:25:05.863Z,15.84
2023-04-23T09:28:15.000Z,15.84
2023-04-23T09:31:22.306Z,15.85
2023-04-23T09:34:29.712Z,15.59
2023-04-23T09:37:29.421Z,15.49
2023-04-23T09:40:36.686Z,15.61
2023-04-23T09:43:44.029Z,15.68
2023-04-23T09:46:52.900Z,16.09
2023-04-23T09:50:00.478Z,16.42
2023-04-23T09:53:07.822Z,16.78
2023-04-23T09:56:15.316Z,17.03
2023-04-23T09:59:39.483Z,16.92
2023-04-23T10:02:29.070Z,16.99
2023-04-23T10:05:45.402Z,17.14
2023-04-23T10:08:43.120Z,17.22
2023-04-23T10:11:51.039Z,17.15
2023-04-23T10:14:58.864Z,17.40
2023-04-23T10:18:07.808Z,17.67
2023-04-23T10:21:15.134Z,17.82
2023-04-23T10:24:23.029Z,17.73
2023-04-23T10:27:48.441Z,17.53
2023-04-23T10:30:36.386Z,17.55
2023-04-23T10:33:56.028Z,17.66
2023-04-23T10:36:49.003Z,17.84
2023-04-23T10:39:58.083Z,18.12
2023-04-23T10:43:05.584Z,18.43
2023-04-23T10:46:13.264Z,18.70
2023-04-23T10:49:22.021Z,18.87
2023-04-23T10:52:29.358Z,19.24
2023-04-23T10:55:37.122Z,19.08
2023-04-23T10:58:45.574Z,19.14
2023-04-23T11:01:53.432Z,19.11
2023-04-23T11:05:01.375Z,19.06
2023-04-23T11:08:19.429Z,19.39
2023-04-23T11:11:15.716Z,19.55
2023-04-23T11:14:23.324Z,19.48
2023-04-23T11:17:31.129Z,19.48
2023-04-23T11:20:32.317Z,19.36
2023-04-23T11:23:42.345Z,19.14
2023-04-23T11:26:50.196Z,19.21
2023-04-23T11:30:00.058Z,19.39
2023-04-23T11:33:08.151Z,19.58
2023-04-23T11:36:16.170Z,19.55
2023-04-23T11:39:24.583Z,19.51
2023-04-23T11:42:32.287Z,19.54
2023-04-23T11:45:40.152Z,19.51
2023-04-23T11:48:48.648Z,19.57
2023-04-23T11:51:56.152Z,20.15
2023-04-23T11:55:03.589Z,20.28
2023-04-23T11:58:12.667Z,20.33
2023-04-23T12:01:20.686Z,19.95
2023-04-23T12:04:28.559Z,19.65
2023-04-23T12:07:36.192Z,19.53
2023-04-23T12:10:46.021Z,19.39
2023-04-23T12:13:53.246Z,19.20
2023-04-23T12:17:00.732Z,18.97
2023-04-23T12:20:09.511Z,18.79
2023-04-23T12:23:17.353Z,18.70
2023-04-23T12:26:24.762Z,18.59
2023-04-23T12:29:33.628Z,18.50
2023-04-23T12:32:41.178Z,18.55
2023-04-23T12:35:48.549Z,18.82
2023-04-23T12:38:57.265Z,19.20
2023-04-23T12:42:05.182Z,19.55
2023-04-23T12:45:13.232Z,19.97
2023-04-23T12:48:20.539Z,19.87
2023-04-23T12:51:29.495Z,19.75
2023-04-23T12:54:36.508Z,19.57
2023-04-23T12:57:44.265Z,19.54
2023-04-23T13:00:53.243Z,19.60
2023-04-23T13:04:00.382Z,19.46
2023-04-23T13:07:08.129Z,19.24
2023-04-23T13:10:17.048Z,19.13
2023-04-23T13:13:24.183Z,19.01
2023-04-23T13:16:31.960Z,18.95
2023-04-23T13:19:40.745Z,18.79
2023-04-23T13:22:48.098Z,18.15
2023-04-23T13:25:55.873Z,17.38
2023-04-23T13:29:03.450Z,16.95
2023-04-23T13:32:13.366Z,16.67
2023-04-23T13:35:20.688Z,16.31
2023-04-23T13:38:28.120Z,15.99
2023-04-23T13:41:37.175Z,15.66
2023-04-23T13:44:44.810Z,15.15
2023-04-23T13:47:52.431Z,15.03
2023-04-23T13:51:01.818Z,15.05
2023-04-23T13:54:08.868Z,15.08
2023-04-23T13:57:17.337Z,15.51
2023-04-23T14:00:26.799Z,15.86
2023-04-23T14:03:34.010Z,16.33
2023-04-23T14:06:41.981Z,16.81
2023-04-23T14:09:51.433Z,17.26
2023-04-23T14:12:58.560Z,17.53
2023-04-23T14:16:06.332Z,17.82
2023-04-23T14:19:13.788Z,18.12
2023-04-23T14:22:22.469Z,18.12
2023-04-23T14:25:30.413Z,18.25
2023-04-23T14:28:37.592Z,18.36
2023-04-23T14:31:46.758Z,18.50
2023-04-23T14:34:54.759Z,18.57
2023-04-23T14:38:01.843Z,18.47
2023-04-23T14:41:10.775Z,18.46
2023-04-23T14:44:18.328Z,18.65
2023-04-23T14:47:25.840Z,18.62
2023-04-23T14:50:34.900Z,18.76
2023-04-23T14:53:42.499Z,18.70
2023-04-23T14:56:50.597Z,18.68
2023-04-23T14:59:58.062Z,18.59
2023-04-23T15:03:07.115Z,18.40
2023-04-23T15:06:15.054Z,18.28
2023-04-23T15:09:22.740Z,18.21
2023-04-23T15:12:31.611Z,18.07
2023-04-23T15:15:44.448Z,18.00
2023-04-23T15:18:41.329Z,17.87
2023-04-23T15:21:50.452Z,17.79
2023-04-23T15:24:58.083Z,17.69
2023-04-23T15:28:05.202Z,17.48
2023-04-23T15:31:14.829Z,17.36
2023-04-23T15:34:22.219Z,17.25
2023-04-23T15:37:29.195Z,17.15
2023-04-23T15:40:37.024Z,17.13
2023-04-23T15:43:45.880Z,17.10
2023-04-23T15:46:53.217Z,17.10
2023-04-23T15:50:01.066Z,17.10
2023-04-23T15:53:09.746Z,17.14
2023-04-23T15:56:17.223Z,17.36
2023-04-23T15:59:25.017Z,17.59
2023-04-23T16:02:34.102Z,17.84
2023-04-23T16:05:41.732Z,18.03
2023-04-23T16:08:49.572Z,18.22
2023-04-23T16:11:58.653Z,18.27
2023-04-23T16:15:06.110Z,18.10
2023-04-23T16:18:13.353Z,17.81
2023-04-23T16:21:21.485Z,17.67
2023-04-23T16:24:30.265Z,17.71
2023-04-23T16:27:37.471Z,17.73
2023-04-23T16:30:45.857Z,17.73
2023-04-23T16:33:55.754Z,17.67
2023-04-23T16:37:03.171Z,17.62
2023-04-23T16:40:11.637Z,17.48
2023-04-23T16:43:20.573Z,17.40
2023-04-23T16:46:28.312Z,17.26
2023-04-23T16:49:36.252Z,17.10
2023-04-23T16:52:45.671Z,16.93
2023-04-23T16:55:53.507Z,16.78
2023-04-23T16:59:01.526Z,16.70
2023-04-23T17:02:09.343Z,16.67
2023-04-23T17:05:18.496Z,16.58
2023-04-23T17:08:26.237Z,16.42
2023-04-23T17:11:34.391Z,16.37
2023-04-23T17:14:43.731Z,16.25
2023-04-23T17:17:51.130Z,16.14
2023-04-23T17:20:58.615Z,16.03
2023-04-23T17:24:08.132Z,15.92
2023-04-23T17:27:15.420Z,15.78
2023-04-23T17:30:23.671Z,15.78
2023-04-23T17:33:32.429Z,15.75
2023-04-23T17:36:39.836Z,15.59
2023-04-23T17:39:47.410Z,15.48
2023-04-23T17:42:55.940Z,15.38
2023-04-23T17:46:03.796Z,15.28
2023-04-23T17:49:11.265Z,15.23
2023-04-23T17:52:18.493Z,15.13
2023-04-23T17:55:27.244Z,15.02
2023-04-23T17:58:36.036Z,14.95
2023-04-23T18:01:45.071Z,14.91
2023-04-23T18:04:54.145Z,14.80
2023-04-23T18:08:01.492Z,14.71
2023-04-23T18:11:09.570Z,14.69
2023-04-23T18:14:18.600Z,14.71
2023-04-23T18:17:26.452Z,14.64
2023-04-23T18:20:34.530Z,14.44
2023-04-23T18:23:43.638Z,14.27
2023-04-23T18:26:51.061Z,14.24
2023-04-23T18:29:59.292Z,14.16
2023-04-23T18:33:06.849Z,14.06
2023-04-23T18:36:15.639Z,13.96
2023-04-23T18:39:23.595Z,13.89
2023-04-23T18:42:31.240Z,13.76
2023-04-23T18:45:40.044Z,13.67
2023-04-23T18:48:48.066Z,13.67
2023-04-23T18:51:55.727Z,13.63
2023-04-23T18:55:04.836Z,13.65
2023-04-23T18:58:12.908Z,13.63
2023-04-23T19:01:20.802Z,13.52
2023-04-23T19:04:30.380Z,13.46
2023-04-23T19:07:38.013Z,13.43
2023-04-23T19:10:46.223Z,13.37
2023-04-23T19:13:53.881Z,13.38
2023-04-23T19:17:02.916Z,13.36
2023-04-23T19:20:10.663Z,13.30
2023-04-23T19:23:18.202Z,13.30
2023-04-23T19:26:27.272Z,13.27
2023-04-23T19:29:35.265Z,13.37
2023-04-23T19:32:43.148Z,13.47
2023-04-23T19:35:52.141Z,13.51
2023-04-23T19:39:00.221Z,13.55
2023-04-23T19:42:07.978Z,13.59
2023-04-23T19:45:16.914Z,13.63
2023-04-23T19:48:24.768Z,13.63
2023-04-23T19:51:31.787Z,13.65
2023-04-23T19:54:39.131Z,13.71
2023-04-23T19:57:48.264Z,13.81
2023-04-23T20:00:55.654Z,13.88
2023-04-23T20:04:03.014Z,13.91
2023-04-23T20:07:11.798Z,13.95
2023-04-23T20:10:18.893Z,13.96
2023-04-23T20:13:26.321Z,13.99
2023-04-23T20:16:35.184Z,13.99
2023-04-23T20:19:44.186Z,14.01
2023-04-23T20:22:52.262Z,14.01
2023-04-23T20:26:02.309Z,14.01
2023-04-23T20:29:10.012Z,14.01
2023-04-23T20:32:17.724Z,13.98
2023-04-23T20:35:27.240Z,13.98
2023-04-23T20:38:34.740Z,13.95
2023-04-23T20:41:42.042Z,13.92
2023-04-23T20:44:49.954Z,13.87
2023-04-23T20:47:59.917Z,13.84
2023-04-23T20:51:07.256Z,13.83
2023-04-23T20:54:14.964Z,13.83
2023-04-23T20:57:24.540Z,13.83
2023-04-23T21:00:31.568Z,13.81
2023-04-23T21:03:39.618Z,13.77
2023-04-23T21:06:48.385Z,13.74
2023-04-23T21:09:55.839Z,13.73
2023-04-23T21:13:03.587Z,13.73
2023-04-23T21:16:12.494Z,13.76
2023-04-23T21:19:19.962Z,13.76
2023-04-23T21:22:27.826Z,13.76
2023-04-23T21:25:35.238Z,13.74
2023-04-23T21:28:44.061Z,13.74
2023-04-23T21:31:51.520Z,13.74
2023-04-23T21:34:59.337Z,13.73
2023-04-23T21:38:08.126Z,13.69
2023-04-23T21:41:15.570Z,13.65
2023-04-23T21:44:23.372Z,13.61
2023-04-23T21:47:32.270Z,13.59
2023-04-23T21:50:39.602Z,13.59
2023-04-23T21:53:47.719Z,13.59
2023-04-23T21:56:56.759Z,13.59
2023-04-23T22:00:04.310Z,13.55
2023-04-23T22:03:15.460Z,13.54
2023-04-23T22:06:16.513Z,13.51
2023-04-23T22:09:25.799Z,13.46
2023-04-23T22:12:33.545Z,13.49
2023-04-23T22:15:40.790Z,13.52
2023-04-23T22:18:50.203Z,13.59
2023-04-23T22:21:58.166Z,13.63
2023-04-23T22:25:05.223Z,13.73
2023-04-23T22:28:14.472Z,13.83
2023-04-23T22:31:21.951Z,13.89
2023-04-23T22:34:29.497Z,13.89
2023-04-23T22:37:38.873Z,13.87
2023-04-23T22:40:46.443Z,13.76
2023-04-23T22:43:54.338Z,13.69
2023-04-23T22:47:01.902Z,13.63
2023-04-23T22:50:10.688Z,13.62
2023-04-23T22:53:18.613Z,13.58
2023-04-23T22:56:25.955Z,13.51
2023-04-23T22:59:34.751Z,13.46
2023-04-23T23:02:42.866Z,13.43
2023-04-23T23:05:49.847Z,13.43
2023-04-23T23:08:59.224Z,13.40
2023-04-23T23:12:06.955Z,13.40
2023-04-23T23:15:14.005Z,13.40
2023-04-23T23:18:23.345Z,13.40
2023-04-23T23:21:30.974Z,13.43
2023-04-23T23:24:38.041Z,13.47
2023-04-23T23:27:47.284Z,13.51
2023-04-23T23:30:54.848Z,13.51
2023-04-23T23:34:02.013Z,13.51
2023-04-23T23:37:09.953Z,13.49
2023-04-23T23:40:18.802Z,13.46
2023-04-23T23:43:26.232Z,13.40
2023-04-23T23:46:34.030Z,13.36
2023-04-23T23:49:42.732Z,13.29
2023-04-23T23:52:50.862Z,13.21
2023-04-23T23:55:58.704Z,13.17
2023-04-23T23:59:07.108Z,13.14
